createdAt,value
2023-02-15T21:35:04.761Z,3.28
2023-02-15T21:37:36.923Z,3.31
2023-02-15T21:40:14.630Z,3.49
2023-02-15T21:43:01.597Z,3.59
2023-02-15T21:45:48.913Z,3.64
2023-02-15T21:48:17.241Z,3.70
2023-02-15T21:51:04.694Z,3.80
2023-02-15T21:53:42.913Z,3.81
2023-02-15T21:56:22.369Z,3.86
2023-02-15T21:58:50.560Z,3.90
2023-02-15T22:01:27.584Z,3.95
2023-02-15T22:03:59.636Z,3.96
2023-02-15T22:06:27.962Z,4.01
2023-02-15T22:08:56.460Z,4.06
2023-02-15T22:11:25.246Z,4.08
2023-02-15T22:13:54.553Z,4.12
2023-02-15T22:16:24.090Z,4.14
2023-02-15T22:18:53.068Z,4.16
2023-02-15T22:21:21.897Z,4.18
2023-02-15T22:23:53.185Z,4.18
2023-02-15T22:26:25.244Z,4.18
2023-02-15T22:28:54.064Z,4.19
2023-02-15T22:31:23.783Z,4.22
2023-02-15T22:33:52.359Z,4.21
2023-02-15T22:36:33.142Z,4.22
2023-02-15T22:39:01.489Z,4.18
2023-02-15T22:41:32.165Z,4.19
2023-02-15T22:44:01.201Z,4.21
2023-02-15T22:46:29.931Z,4.32
2023-02-15T22:48:58.693Z,4.39
2023-02-15T22:51:28.306Z,4.43
2023-02-15T22:53:56.627Z,4.41
2023-02-15T22:56:36.869Z,4.39
2023-02-15T22:59:11.087Z,4.42
2023-02-15T23:01:39.490Z,4.45
2023-02-15T23:04:08.119Z,4.46
2023-02-15T23:06:36.589Z,4.48
2023-02-15T23:09:05.007Z,4.50
2023-02-15T23:11:34.116Z,4.51
2023-02-15T23:14:05.323Z,4.51
2023-02-15T23:16:35.132Z,4.51
2023-02-15T23:19:03.375Z,4.49
2023-02-15T23:21:33.973Z,4.47
2023-02-15T23:24:26.681Z,4.45
2023-02-15T23:26:55.039Z,4.35
2023-02-15T23:29:27.279Z,4.37
2023-02-15T23:31:56.482Z,4.35
2023-02-15T23:34:29.647Z,4.34
2023-02-15T23:36:58.362Z,4.29
2023-02-15T23:39:47.844Z,4.27
2023-02-15T23:42:22.239Z,4.18
2023-02-15T23:44:51.001Z,4.17
2023-02-15T23:47:47.010Z,4.16
2023-02-15T23:50:21.294Z,4.06
2023-02-15T23:52:54.088Z,4.06
2023-02-15T23:55:24.167Z,4.04
2023-02-15T23:57:54.519Z,4.03
